sensor_id;sensor_type;location;lat;lon;timestamp;temperature;humidity
65396;HTU21D;52004;45.136;39.010;2024-03-06T00:00:49;10.11;57.78
65396;HTU21D;52004;45.136;39.010;2024-03-06T00:03:15;10.06;57.81
65396;HTU21D;52004;45.136;39.010;2024-03-06T00:05:41;10.03;57.87
65396;HTU21D;52004;45.136;39.010;2024-03-06T00:08:06;10.00;57.90
65396;HTU21D;52004;45.136;39.010;2024-03-06T00:10:32;9.98;57.93
65396;HTU21D;52004;45.136;39.010;2024-03-06T00:12:58;0.00;57.96
65396;HTU21D;52004;45.136;39.010;2024-03-06T00:15:24;9.93;58.01
65396;HTU21D;52004;45.136;39.010;2024-03-06T00:17:50;9.92;58.02
65396;HTU21D;52004;45.136;39.010;2024-03-06T00:20:16;9.90;58.02
65396;HTU21D;52004;45.136;39.010;2024-03-06T00:22:43;9.89;58.03
65396;HTU21D;52004;45.136;39.010;2024-03-06T00:25:09;9.86;58.03
65396;HTU21D;52004;45.136;39.010;2024-03-06T00:27:36;9.84;58.04
65396;HTU21D;52004;45.136;39.010;2024-03-06T00:30:02;9.83;58.06
65396;HTU21D;52004;45.136;39.010;2024-03-06T00:32:28;9.82;58.06
65396;HTU21D;52004;45.136;39.010;2024-03-06T00:34:54;9.82;58.05
65396;HTU21D;52004;45.136;39.010;2024-03-06T00:37:20;9.79;58.05
65396;HTU21D;52004;45.136;39.010;2024-03-06T00:39:46;9.78;58.05
65396;HTU21D;52004;45.136;39.010;2024-03-06T00:42:12;9.76;58.07
65396;HTU21D;52004;45.136;39.010;2024-03-06T00:44:39;9.75;58.06
65396;HTU21D;52004;45.136;39.010;2024-03-06T00:47:05;9.74;58.03
65396;HTU21D;52004;45.136;39.010;2024-03-06T00:49:31;9.71;58.04
65396;HTU21D;52004;45.136;39.010;2024-03-06T00:51:56;0.00;58.03
65396;HTU21D;52004;45.136;39.010;2024-03-06T00:54:22;9.68;58.04
65396;HTU21D;52004;45.136;39.010;2024-03-06T00:56:48;9.68;58.04
65396;HTU21D;52004;45.136;39.010;2024-03-06T00:59:14;9.66;58.04
65396;HTU21D;52004;45.136;39.010;2024-03-06T01:01:40;9.65;58.06
65396;HTU21D;52004;45.136;39.010;2024-03-06T01:04:06;9.67;58.04
65396;HTU21D;52004;45.136;39.010;2024-03-06T01:06:32;9.67;58.02
65396;HTU21D;52004;45.136;39.010;2024-03-06T01:08:58;9.64;58.01
65396;HTU21D;52004;45.136;39.010;2024-03-06T01:11:24;9.62;58.03
65396;HTU21D;52004;45.136;39.010;2024-03-06T01:13:52;9.62;58.06
65396;HTU21D;52004;45.136;39.010;2024-03-06T01:16:18;9.60;58.06
65396;HTU21D;52004;45.136;39.010;2024-03-06T01:18:44;9.60;58.08
65396;HTU21D;52004;45.136;39.010;2024-03-06T01:21:09;9.59;58.11
65396;HTU21D;52004;45.136;39.010;2024-03-06T01:23:35;9.59;58.12
65396;HTU21D;52004;45.136;39.010;2024-03-06T01:26:01;9.59;58.09
65396;HTU21D;52004;45.136;39.010;2024-03-06T01:28:27;9.55;58.09
65396;HTU21D;52004;45.136;39.010;2024-03-06T01:30:54;9.54;58.13
65396;HTU21D;52004;45.136;39.010;2024-03-06T01:33:20;9.52;58.13
65396;HTU21D;52004;45.136;39.010;2024-03-06T01:35:46;9.52;58.15
65396;HTU21D;52004;45.136;39.010;2024-03-06T01:38:12;9.50;58.16
65396;HTU21D;52004;45.136;39.010;2024-03-06T01:40:42;9.51;58.10
65396;HTU21D;52004;45.136;39.010;2024-03-06T01:43:16;9.48;58.13
65396;HTU21D;52004;45.136;39.010;2024-03-06T01:45:43;9.47;58.16
65396;HTU21D;52004;45.136;39.010;2024-03-06T01:48:09;9.45;58.13
65396;HTU21D;52004;45.136;39.010;2024-03-06T01:50:35;9.44;58.18
65396;HTU21D;52004;45.136;39.010;2024-03-06T01:53:01;9.40;58.19
65396;HTU21D;52004;45.136;39.010;2024-03-06T01:55:27;9.41;58.22
65396;HTU21D;52004;45.136;39.010;2024-03-06T01:57:54;9.41;58.19
65396;HTU21D;52004;45.136;39.010;2024-03-06T02:00:20;9.41;58.19
65396;HTU21D;52004;45.136;39.010;2024-03-06T02:02:46;9.41;58.17
65396;HTU21D;52004;45.136;39.010;2024-03-06T02:05:12;9.40;58.13
65396;HTU21D;52004;45.136;39.010;2024-03-06T02:07:38;9.39;58.14
65396;HTU21D;52004;45.136;39.010;2024-03-06T02:10:05;9.39;58.13
65396;HTU21D;52004;45.136;39.010;2024-03-06T02:12:32;9.37;58.14
65396;HTU21D;52004;45.136;39.010;2024-03-06T02:14:58;9.35;58.11
65396;HTU21D;52004;45.136;39.010;2024-03-06T02:17:24;9.31;58.13
65396;HTU21D;52004;45.136;39.010;2024-03-06T02:19:51;9.30;58.14
65396;HTU21D;52004;45.136;39.010;2024-03-06T02:22:17;9.27;58.16
65396;HTU21D;52004;45.136;39.010;2024-03-06T02:24:44;9.25;58.16
65396;HTU21D;52004;45.136;39.010;2024-03-06T02:27:10;9.23;58.16
65396;HTU21D;52004;45.136;39.010;2024-03-06T02:29:36;9.21;58.19
65396;HTU21D;52004;45.136;39.010;2024-03-06T02:32:03;9.20;58.22
65396;HTU21D;52004;45.136;39.010;2024-03-06T02:34:29;9.17;58.24
65396;HTU21D;52004;45.136;39.010;2024-03-06T02:36:55;9.16;58.25
65396;HTU21D;52004;45.136;39.010;2024-03-06T02:39:22;9.15;58.25
65396;HTU21D;52004;45.136;39.010;2024-03-06T02:41:48;9.14;58.25
65396;HTU21D;52004;45.136;39.010;2024-03-06T02:44:14;9.10;58.25
65396;HTU21D;52004;45.136;39.010;2024-03-06T02:46:41;9.09;58.25
65396;HTU21D;52004;45.136;39.010;2024-03-06T02:49:07;9.04;58.28
65396;HTU21D;52004;45.136;39.010;2024-03-06T02:51:32;9.02;58.34
65396;HTU21D;52004;45.136;39.010;2024-03-06T02:53:58;9.02;58.35
65396;HTU21D;52004;45.136;39.010;2024-03-06T02:56:24;8.98;58.35
65396;HTU21D;52004;45.136;39.010;2024-03-06T02:58:50;8.93;58.38
65396;HTU21D;52004;45.136;39.010;2024-03-06T03:01:16;8.91;58.41
65396;HTU21D;52004;45.136;39.010;2024-03-06T03:03:42;8.89;58.45
65396;HTU21D;52004;45.136;39.010;2024-03-06T03:06:10;8.86;58.45
65396;HTU21D;52004;45.136;39.010;2024-03-06T03:08:36;8.82;58.50
65396;HTU21D;52004;45.136;39.010;2024-03-06T03:11:02;8.78;58.54
65396;HTU21D;52004;45.136;39.010;2024-03-06T03:13:28;8.77;58.56
65396;HTU21D;52004;45.136;39.010;2024-03-06T03:15:56;8.76;58.56
65396;HTU21D;52004;45.136;39.010;2024-03-06T03:18:22;8.75;58.56
65396;HTU21D;52004;45.136;39.010;2024-03-06T03:20:48;8.73;58.58
65396;HTU21D;52004;45.136;39.010;2024-03-06T03:23:14;8.71;58.58
65396;HTU21D;52004;45.136;39.010;2024-03-06T03:25:47;8.70;58.58
65396;HTU21D;52004;45.136;39.010;2024-03-06T03:28:14;8.68;58.57
65396;HTU21D;52004;45.136;39.010;2024-03-06T03:30:42;8.66;58.57
65396;HTU21D;52004;45.136;39.010;2024-03-06T03:33:09;8.65;58.57
65396;HTU21D;52004;45.136;39.010;2024-03-06T03:35:35;8.65;58.54
65396;HTU21D;52004;45.136;39.010;2024-03-06T03:38:01;8.64;58.51
65396;HTU21D;52004;45.136;39.010;2024-03-06T03:40:27;8.64;58.50
65396;HTU21D;52004;45.136;39.010;2024-03-06T03:42:53;8.61;58.48
65396;HTU21D;52004;45.136;39.010;2024-03-06T03:45:19;0.00;58.49
65396;HTU21D;52004;45.136;39.010;2024-03-06T03:47:45;8.58;58.52
65396;HTU21D;52004;45.136;39.010;2024-03-06T03:50:11;0.00;58.53
65396;HTU21D;52004;45.136;39.010;2024-03-06T03:52:38;8.53;58.54
65396;HTU21D;52004;45.136;39.010;2024-03-06T03:55:07;8.52;58.55
65396;HTU21D;52004;45.136;39.010;2024-03-06T03:57:33;8.51;58.52
65396;HTU21D;52004;45.136;39.010;2024-03-06T03:59:59;8.51;58.53
65396;HTU21D;52004;45.136;39.010;2024-03-06T04:02:25;8.49;58.50
65396;HTU21D;52004;45.136;39.010;2024-03-06T04:04:51;8.49;58.49
65396;HTU21D;52004;45.136;39.010;2024-03-06T04:07:16;8.47;58.47
65396;HTU21D;52004;45.136;39.010;2024-03-06T04:09:44;8.42;58.48
65396;HTU21D;52004;45.136;39.010;2024-03-06T04:12:10;8.41;58.48
65396;HTU21D;52004;45.136;39.010;2024-03-06T04:14:36;8.36;58.49
65396;HTU21D;52004;45.136;39.010;2024-03-06T04:17:02;8.31;58.51
65396;HTU21D;52004;45.136;39.010;2024-03-06T04:19:29;8.27;58.58
65396;HTU21D;52004;45.136;39.010;2024-03-06T04:21:57;8.24;58.61
65396;HTU21D;52004;45.136;39.010;2024-03-06T04:24:23;8.20;58.60
65396;HTU21D;52004;45.136;39.010;2024-03-06T04:26:49;8.18;58.64
65396;HTU21D;52004;45.136;39.010;2024-03-06T04:29:14;8.15;58.65
65396;HTU21D;52004;45.136;39.010;2024-03-06T04:31:41;8.12;58.69
65396;HTU21D;52004;45.136;39.010;2024-03-06T04:34:07;8.09;58.71
65396;HTU21D;52004;45.136;39.010;2024-03-06T04:36:34;8.08;58.74
65396;HTU21D;52004;45.136;39.010;2024-03-06T04:39:00;8.05;58.77
65396;HTU21D;52004;45.136;39.010;2024-03-06T04:41:26;8.04;58.85
65396;HTU21D;52004;45.136;39.010;2024-03-06T04:43:52;8.04;58.88
65396;HTU21D;52004;45.136;39.010;2024-03-06T04:46:18;8.06;58.89
65396;HTU21D;52004;45.136;39.010;2024-03-06T04:48:44;8.07;58.89
65396;HTU21D;52004;45.136;39.010;2024-03-06T04:51:12;8.08;58.91
65396;HTU21D;52004;45.136;39.010;2024-03-06T04:53:38;8.11;58.96
65396;HTU21D;52004;45.136;39.010;2024-03-06T04:56:04;8.15;58.99
65396;HTU21D;52004;45.136;39.010;2024-03-06T04:58:30;8.20;59.03
65396;HTU21D;52004;45.136;39.010;2024-03-06T05:00:56;8.22;59.12
65396;HTU21D;52004;45.136;39.010;2024-03-06T05:03:22;8.32;59.43
65396;HTU21D;52004;45.136;39.010;2024-03-06T05:05:48;8.46;59.75
65396;HTU21D;52004;45.136;39.010;2024-03-06T05:08:14;8.68;59.77
65396;HTU21D;52004;45.136;39.010;2024-03-06T05:10:40;9.01;59.61
65396;HTU21D;52004;45.136;39.010;2024-03-06T05:13:06;9.34;59.28
65396;HTU21D;52004;45.136;39.010;2024-03-06T05:15:32;9.67;58.99
65396;HTU21D;52004;45.136;39.010;2024-03-06T05:17:58;10.01;58.78
65396;HTU21D;52004;45.136;39.010;2024-03-06T05:20:24;0.00;58.39
65396;HTU21D;52004;45.136;39.010;2024-03-06T05:22:51;10.55;58.25
65396;HTU21D;52004;45.136;39.010;2024-03-06T05:25:16;0.00;58.05
65396;HTU21D;52004;45.136;39.010;2024-03-06T05:27:42;10.98;57.82
65396;HTU21D;52004;45.136;39.010;2024-03-06T05:30:08;11.16;57.71
65396;HTU21D;52004;45.136;39.010;2024-03-06T05:32:34;11.32;57.57
65396;HTU21D;52004;45.136;39.010;2024-03-06T05:35:01;11.52;57.58
65396;HTU21D;52004;45.136;39.010;2024-03-06T05:37:27;11.68;57.37
65396;HTU21D;52004;45.136;39.010;2024-03-06T05:39:54;11.78;57.29
65396;HTU21D;52004;45.136;39.010;2024-03-06T05:42:20;11.91;57.27
65396;HTU21D;52004;45.136;39.010;2024-03-06T05:44:46;12.02;57.09
65396;HTU21D;52004;45.136;39.010;2024-03-06T05:47:14;12.14;57.25
65396;HTU21D;52004;45.136;39.010;2024-03-06T05:49:40;12.26;57.03
65396;HTU21D;52004;45.136;39.010;2024-03-06T05:52:05;12.33;57.05
65396;HTU21D;52004;45.136;39.010;2024-03-06T05:54:31;12.45;57.06
65396;HTU21D;52004;45.136;39.010;2024-03-06T05:56:59;12.58;57.13
65396;HTU21D;52004;45.136;39.010;2024-03-06T05:59:25;12.76;57.21
65396;HTU21D;52004;45.136;39.010;2024-03-06T06:01:50;12.93;57.15
65396;HTU21D;52004;45.136;39.010;2024-03-06T06:04:16;13.09;56.98
65396;HTU21D;52004;45.136;39.010;2024-03-06T06:06:42;13.23;56.96
65396;HTU21D;52004;45.136;39.010;2024-03-06T06:09:08;13.36;56.94
65396;HTU21D;52004;45.136;39.010;2024-03-06T06:11:41;13.48;56.77
65396;HTU21D;52004;45.136;39.010;2024-03-06T06:14:08;13.55;56.73
65396;HTU21D;52004;45.136;39.010;2024-03-06T06:16:37;0.00;56.70
65396;HTU21D;52004;45.136;39.010;2024-03-06T06:19:03;13.71;56.64
65396;HTU21D;52004;45.136;39.010;2024-03-06T06:21:30;13.83;56.80
65396;HTU21D;52004;45.136;39.010;2024-03-06T06:23:56;13.99;56.95
65396;HTU21D;52004;45.136;39.010;2024-03-06T06:26:22;14.17;56.93
65396;HTU21D;52004;45.136;39.010;2024-03-06T06:28:48;14.27;56.58
65396;HTU21D;52004;45.136;39.010;2024-03-06T06:31:14;0.00;56.65
65396;HTU21D;52004;45.136;39.010;2024-03-06T06:33:40;14.54;56.83
65396;HTU21D;52004;45.136;39.010;2024-03-06T06:36:06;14.74;56.90
65396;HTU21D;52004;45.136;39.010;2024-03-06T06:38:32;14.88;56.66
65396;HTU21D;52004;45.136;39.010;2024-03-06T06:40:58;15.02;56.58
65396;HTU21D;52004;45.136;39.010;2024-03-06T06:43:24;15.15;56.68
65396;HTU21D;52004;45.136;39.010;2024-03-06T06:45:50;15.28;56.67
65396;HTU21D;52004;45.136;39.010;2024-03-06T06:48:16;15.41;56.54
65396;HTU21D;52004;45.136;39.010;2024-03-06T06:50:42;15.49;56.26
65396;HTU21D;52004;45.136;39.010;2024-03-06T06:53:08;15.51;56.22
65396;HTU21D;52004;45.136;39.010;2024-03-06T06:55:34;15.56;56.42
65396;HTU21D;52004;45.136;39.010;2024-03-06T06:58:01;15.62;56.13
65396;HTU21D;52004;45.136;39.010;2024-03-06T07:00:27;15.66;56.03
65396;HTU21D;52004;45.136;39.010;2024-03-06T07:02:56;15.68;56.17
65396;HTU21D;52004;45.136;39.010;2024-03-06T07:05:24;15.80;56.34
65396;HTU21D;52004;45.136;39.010;2024-03-06T07:07:49;15.93;56.26
65396;HTU21D;52004;45.136;39.010;2024-03-06T07:10:15;16.03;56.19
65396;HTU21D;52004;45.136;39.010;2024-03-06T07:12:41;16.13;56.17
65396;HTU21D;52004;45.136;39.010;2024-03-06T07:15:07;16.25;56.12
65396;HTU21D;52004;45.136;39.010;2024-03-06T07:17:33;16.29;55.90
65396;HTU21D;52004;45.136;39.010;2024-03-06T07:19:59;16.34;56.02
65396;HTU21D;52004;45.136;39.010;2024-03-06T07:22:26;16.44;55.82
65396;HTU21D;52004;45.136;39.010;2024-03-06T07:24:52;16.51;55.88
65396;HTU21D;52004;45.136;39.010;2024-03-06T07:27:18;16.60;55.76
65396;HTU21D;52004;45.136;39.010;2024-03-06T07:29:44;16.72;55.97
65396;HTU21D;52004;45.136;39.010;2024-03-06T07:32:09;16.87;55.97
65396;HTU21D;52004;45.136;39.010;2024-03-06T07:34:36;0.00;55.80
65396;HTU21D;52004;45.136;39.010;2024-03-06T07:37:02;17.06;55.64
65396;HTU21D;52004;45.136;39.010;2024-03-06T07:39:28;17.11;55.60
65396;HTU21D;52004;45.136;39.010;2024-03-06T07:41:54;17.16;55.36
65396;HTU21D;52004;45.136;39.010;2024-03-06T07:44:20;17.10;54.97
65396;HTU21D;52004;45.136;39.010;2024-03-06T07:46:46;17.04;55.14
65396;HTU21D;52004;45.136;39.010;2024-03-06T07:49:12;17.03;55.34
65396;HTU21D;52004;45.136;39.010;2024-03-06T07:51:38;16.98;54.81
65396;HTU21D;52004;45.136;39.010;2024-03-06T07:54:06;16.80;54.60
65396;HTU21D;52004;45.136;39.010;2024-03-06T07:56:33;16.65;54.80
65396;HTU21D;52004;45.136;39.010;2024-03-06T07:58:59;16.50;54.54
65396;HTU21D;52004;45.136;39.010;2024-03-06T08:01:25;16.30;54.35
65396;HTU21D;52004;45.136;39.010;2024-03-06T08:03:54;16.01;53.90
65396;HTU21D;52004;45.136;39.010;2024-03-06T08:06:20;15.73;54.31
65396;HTU21D;52004;45.136;39.010;2024-03-06T08:08:46;0.00;54.42
65396;HTU21D;52004;45.136;39.010;2024-03-06T08:11:13;15.43;54.64
65396;HTU21D;52004;45.136;39.010;2024-03-06T08:13:39;15.36;54.75
65396;HTU21D;52004;45.136;39.010;2024-03-06T08:16:05;15.34;54.91
65396;HTU21D;52004;45.136;39.010;2024-03-06T08:18:32;15.32;54.95
65396;HTU21D;52004;45.136;39.010;2024-03-06T08:20:58;0.00;55.13
65396;HTU21D;52004;45.136;39.010;2024-03-06T08:23:24;15.42;54.80
65396;HTU21D;52004;45.136;39.010;2024-03-06T08:25:50;15.44;55.02
65396;HTU21D;52004;45.136;39.010;2024-03-06T08:28:16;15.53;55.06
65396;HTU21D;52004;45.136;39.010;2024-03-06T08:30:42;15.59;55.06
65396;HTU21D;52004;45.136;39.010;2024-03-06T08:33:10;15.67;54.87
65396;HTU21D;52004;45.136;39.010;2024-03-06T08:35:36;15.67;54.70
65396;HTU21D;52004;45.136;39.010;2024-03-06T08:38:01;15.62;54.54
65396;HTU21D;52004;45.136;39.010;2024-03-06T08:40:27;15.56;54.40
65396;HTU21D;52004;45.136;39.010;2024-03-06T08:42:54;15.51;54.39
65396;HTU21D;52004;45.136;39.010;2024-03-06T08:45:20;15.40;54.27
65396;HTU21D;52004;45.136;39.010;2024-03-06T08:47:46;15.29;54.20
65396;HTU21D;52004;45.136;39.010;2024-03-06T08:50:13;15.17;54.17
65396;HTU21D;52004;45.136;39.010;2024-03-06T08:52:39;15.09;54.17
65396;HTU21D;52004;45.136;39.010;2024-03-06T08:55:05;14.98;54.33
65396;HTU21D;52004;45.136;39.010;2024-03-06T08:57:37;14.97;54.45
65396;HTU21D;52004;45.136;39.010;2024-03-06T09:00:03;14.94;54.42
65396;HTU21D;52004;45.136;39.010;2024-03-06T09:02:30;14.92;54.53
65396;HTU21D;52004;45.136;39.010;2024-03-06T09:04:56;14.93;54.59
65396;HTU21D;52004;45.136;39.010;2024-03-06T09:07:22;14.97;54.65
65396;HTU21D;52004;45.136;39.010;2024-03-06T09:09:51;15.03;54.65
65396;HTU21D;52004;45.136;39.010;2024-03-06T09:12:20;15.07;54.55
65396;HTU21D;52004;45.136;39.010;2024-03-06T09:14:46;15.13;54.53
65396;HTU21D;52004;45.136;39.010;2024-03-06T09:17:11;0.00;54.55
65396;HTU21D;52004;45.136;39.010;2024-03-06T09:19:40;15.25;54.65
65396;HTU21D;52004;45.136;39.010;2024-03-06T09:22:06;15.34;54.58
65396;HTU21D;52004;45.136;39.010;2024-03-06T09:24:32;15.38;54.46
65396;HTU21D;52004;45.136;39.010;2024-03-06T09:27:01;15.40;54.52
65396;HTU21D;52004;45.136;39.010;2024-03-06T09:29:27;15.51;54.65
65396;HTU21D;52004;45.136;39.010;2024-03-06T09:31:53;15.60;54.65
65396;HTU21D;52004;45.136;39.010;2024-03-06T09:34:19;15.75;54.87
65396;HTU21D;52004;45.136;39.010;2024-03-06T09:36:46;15.90;54.76
65396;HTU21D;52004;45.136;39.010;2024-03-06T09:39:13;16.04;54.80
65396;HTU21D;52004;45.136;39.010;2024-03-06T09:41:43;16.19;54.69
65396;HTU21D;52004;45.136;39.010;2024-03-06T09:44:10;16.27;54.33
65396;HTU21D;52004;45.136;39.010;2024-03-06T09:46:36;16.27;54.00
65396;HTU21D;52004;45.136;39.010;2024-03-06T09:49:02;16.22;53.91
65396;HTU21D;52004;45.136;39.010;2024-03-06T09:51:28;16.19;53.88
65396;HTU21D;52004;45.136;39.010;2024-03-06T09:53:54;16.16;53.84
65396;HTU21D;52004;45.136;39.010;2024-03-06T09:56:20;0.00;53.62
65396;HTU21D;52004;45.136;39.010;2024-03-06T09:58:46;15.96;53.51
65396;HTU21D;52004;45.136;39.010;2024-03-06T10:01:12;15.86;53.48
65396;HTU21D;52004;45.136;39.010;2024-03-06T10:06:45;15.66;53.32
65396;HTU21D;52004;45.136;39.010;2024-03-06T10:09:11;15.56;53.36
65396;HTU21D;52004;45.136;39.010;2024-03-06T10:11:38;15.44;53.43
65396;HTU21D;52004;45.136;39.010;2024-03-06T10:14:04;15.38;53.53
65396;HTU21D;52004;45.136;39.010;2024-03-06T10:16:30;15.32;53.59
65396;HTU21D;52004;45.136;39.010;2024-03-06T10:18:56;15.30;53.67
65396;HTU21D;52004;45.136;39.010;2024-03-06T10:21:31;15.32;53.63
65396;HTU21D;52004;45.136;39.010;2024-03-06T10:24:00;15.36;53.78
65396;HTU21D;52004;45.136;39.010;2024-03-06T10:26:28;15.42;53.78
65396;HTU21D;52004;45.136;39.010;2024-03-06T10:28:56;15.46;53.71
65396;HTU21D;52004;45.136;39.010;2024-03-06T10:31:28;15.48;53.62
65396;HTU21D;52004;45.136;39.010;2024-03-06T10:33:54;15.51;53.60
65396;HTU21D;52004;45.136;39.010;2024-03-06T10:36:20;15.56;53.65
65396;HTU21D;52004;45.136;39.010;2024-03-06T10:38:46;15.58;53.51
65396;HTU21D;52004;45.136;39.010;2024-03-06T10:41:14;15.56;53.21
65396;HTU21D;52004;45.136;39.010;2024-03-06T10:43:41;15.52;53.29
65396;HTU21D;52004;45.136;39.010;2024-03-06T10:46:09;15.48;53.12
65396;HTU21D;52004;45.136;39.010;2024-03-06T10:48:36;0.00;53.20
65396;HTU21D;52004;45.136;39.010;2024-03-06T10:51:03;15.36;53.27
65396;HTU21D;52004;45.136;39.010;2024-03-06T10:53:30;15.31;53.20
65396;HTU21D;52004;45.136;39.010;2024-03-06T10:55:57;15.26;53.28
65396;HTU21D;52004;45.136;39.010;2024-03-06T10:58:24;15.23;53.35
65396;HTU21D;52004;45.136;39.010;2024-03-06T11:00:50;15.27;53.36
65396;HTU21D;52004;45.136;39.010;2024-03-06T11:03:17;15.26;53.29
65396;HTU21D;52004;45.136;39.010;2024-03-06T11:05:44;15.25;53.27
65396;HTU21D;52004;45.136;39.010;2024-03-06T11:08:13;15.25;53.21
65396;HTU21D;52004;45.136;39.010;2024-03-06T11:10:40;15.23;53.20
65396;HTU21D;52004;45.136;39.010;2024-03-06T11:13:25;15.18;53.27
65396;HTU21D;52004;45.136;39.010;2024-03-06T11:15:53;15.17;53.29
65396;HTU21D;52004;45.136;39.010;2024-03-06T11:23:29;15.24;53.29
65396;HTU21D;52004;45.136;39.010;2024-03-06T11:25:56;15.22;53.09
65396;HTU21D;52004;45.136;39.010;2024-03-06T11:28:24;15.18;53.19
65396;HTU21D;52004;45.136;39.010;2024-03-06T11:33:19;15.21;53.20
65396;HTU21D;52004;45.136;39.010;2024-03-06T11:38:30;15.26;53.17
65396;HTU21D;52004;45.136;39.010;2024-03-06T11:40:56;15.27;53.13
65396;HTU21D;52004;45.136;39.010;2024-03-06T11:43:26;15.27;53.04
65396;HTU21D;52004;45.136;39.010;2024-03-06T11:45:53;15.25;53.00
65396;HTU21D;52004;45.136;39.010;2024-03-06T11:48:19;15.23;53.02
65396;HTU21D;52004;45.136;39.010;2024-03-06T11:50:47;15.22;53.05
65396;HTU21D;52004;45.136;39.010;2024-03-06T11:53:14;15.22;52.98
65396;HTU21D;52004;45.136;39.010;2024-03-06T11:55:40;15.18;52.99
65396;HTU21D;52004;45.136;39.010;2024-03-06T11:58:06;15.18;52.99
65396;HTU21D;52004;45.136;39.010;2024-03-06T12:00:33;15.15;52.96
65396;HTU21D;52004;45.136;39.010;2024-03-06T12:02:59;15.13;52.99
65396;HTU21D;52004;45.136;39.010;2024-03-06T12:05:25;15.12;53.04
65396;HTU21D;52004;45.136;39.010;2024-03-06T12:07:54;15.12;53.01
65396;HTU21D;52004;45.136;39.010;2024-03-06T12:10:20;15.11;53.01
65396;HTU21D;52004;45.136;39.010;2024-03-06T12:12:46;15.11;52.85
65396;HTU21D;52004;45.136;39.010;2024-03-06T12:15:13;0.00;52.96
65396;HTU21D;52004;45.136;39.010;2024-03-06T12:17:44;15.06;52.97
65396;HTU21D;52004;45.136;39.010;2024-03-06T12:20:13;15.08;52.99
65396;HTU21D;52004;45.136;39.010;2024-03-06T12:22:51;15.08;52.99
65396;HTU21D;52004;45.136;39.010;2024-03-06T12:25:21;15.10;52.92
65396;HTU21D;52004;45.136;39.010;2024-03-06T12:27:48;15.09;52.94
65396;HTU21D;52004;45.136;39.010;2024-03-06T12:30:17;15.09;52.95
65396;HTU21D;52004;45.136;39.010;2024-03-06T12:32:44;15.10;52.97
65396;HTU21D;52004;45.136;39.010;2024-03-06T12:35:10;15.10;52.92
65396;HTU21D;52004;45.136;39.010;2024-03-06T12:37:36;0.00;52.71
65396;HTU21D;52004;45.136;39.010;2024-03-06T12:40:04;14.99;52.79
65396;HTU21D;52004;45.136;39.010;2024-03-06T12:42:55;14.93;52.89
65396;HTU21D;52004;45.136;39.010;2024-03-06T12:45:21;14.93;52.94
65396;HTU21D;52004;45.136;39.010;2024-03-06T12:47:47;14.91;52.94
65396;HTU21D;52004;45.136;39.010;2024-03-06T12:50:16;14.91;52.96
65396;HTU21D;52004;45.136;39.010;2024-03-06T12:52:42;14.91;52.93
65396;HTU21D;52004;45.136;39.010;2024-03-06T12:55:11;14.92;52.89
65396;HTU21D;52004;45.136;39.010;2024-03-06T12:57:37;14.91;52.91
65396;HTU21D;52004;45.136;39.010;2024-03-06T13:00:03;14.89;52.87
65396;HTU21D;52004;45.136;39.010;2024-03-06T13:02:32;14.87;52.85
65396;HTU21D;52004;45.136;39.010;2024-03-06T13:04:58;14.85;52.82
65396;HTU21D;52004;45.136;39.010;2024-03-06T13:07:24;14.81;52.82
65396;HTU21D;52004;45.136;39.010;2024-03-06T13:09:53;14.80;52.89
65396;HTU21D;52004;45.136;39.010;2024-03-06T13:12:19;14.77;52.88
65396;HTU21D;52004;45.136;39.010;2024-03-06T13:14:45;14.73;52.87
65396;HTU21D;52004;45.136;39.010;2024-03-06T13:17:11;14.70;52.85
65396;HTU21D;52004;45.136;39.010;2024-03-06T13:19:37;14.67;52.91
65396;HTU21D;52004;45.136;39.010;2024-03-06T13:22:02;14.66;52.91
65396;HTU21D;52004;45.136;39.010;2024-03-06T13:24:28;14.63;52.90
65396;HTU21D;52004;45.136;39.010;2024-03-06T13:26:54;14.58;52.94
65396;HTU21D;52004;45.136;39.010;2024-03-06T13:29:20;14.56;52.94
65396;HTU21D;52004;45.136;39.010;2024-03-06T13:31:46;14.55;52.93
65396;HTU21D;52004;45.136;39.010;2024-03-06T13:34:13;14.53;52.91
65396;HTU21D;52004;45.136;39.010;2024-03-06T13:36:39;14.48;52.86
65396;HTU21D;52004;45.136;39.010;2024-03-06T13:39:05;14.40;52.91
65396;HTU21D;52004;45.136;39.010;2024-03-06T13:41:30;14.34;52.97
65396;HTU21D;52004;45.136;39.010;2024-03-06T13:43:56;14.28;53.03
65396;HTU21D;52004;45.136;39.010;2024-03-06T13:46:22;14.24;53.04
65396;HTU21D;52004;45.136;39.010;2024-03-06T13:48:48;0.00;53.06
65396;HTU21D;52004;45.136;39.010;2024-03-06T13:51:14;14.14;53.11
65396;HTU21D;52004;45.136;39.010;2024-03-06T13:53:40;14.11;53.10
65396;HTU21D;52004;45.136;39.010;2024-03-06T13:56:06;14.08;53.14
65396;HTU21D;52004;45.136;39.010;2024-03-06T13:58:33;14.05;53.14
65396;HTU21D;52004;45.136;39.010;2024-03-06T14:00:59;14.03;53.14
65396;HTU21D;52004;45.136;39.010;2024-03-06T14:03:25;14.00;53.14
65396;HTU21D;52004;45.136;39.010;2024-03-06T14:05:51;13.97;53.16
65396;HTU21D;52004;45.136;39.010;2024-03-06T14:08:17;13.95;53.15
65396;HTU21D;52004;45.136;39.010;2024-03-06T14:10:43;0.00;53.16
65396;HTU21D;52004;45.136;39.010;2024-03-06T14:13:11;13.92;53.16
65396;HTU21D;52004;45.136;39.010;2024-03-06T14:15:37;13.91;53.14
65396;HTU21D;52004;45.136;39.010;2024-03-06T14:18:03;13.86;53.14
65396;HTU21D;52004;45.136;39.010;2024-03-06T14:20:29;13.84;53.12
65396;HTU21D;52004;45.136;39.010;2024-03-06T14:22:55;13.79;53.11
65396;HTU21D;52004;45.136;39.010;2024-03-06T14:25:21;13.74;53.14
65396;HTU21D;52004;45.136;39.010;2024-03-06T14:27:48;13.68;53.18
65396;HTU21D;52004;45.136;39.010;2024-03-06T14:30:14;13.63;53.20
65396;HTU21D;52004;45.136;39.010;2024-03-06T14:32:41;13.56;53.24
65396;HTU21D;52004;45.136;39.010;2024-03-06T14:35:32;13.50;53.27
65396;HTU21D;52004;45.136;39.010;2024-03-06T14:37:58;13.44;53.30
65396;HTU21D;52004;45.136;39.010;2024-03-06T14:40:25;13.34;53.34
65396;HTU21D;52004;45.136;39.010;2024-03-06T14:42:51;13.23;53.48
65396;HTU21D;52004;45.136;39.010;2024-03-06T14:45:17;13.17;53.53
65396;HTU21D;52004;45.136;39.010;2024-03-06T14:47:43;13.12;53.56
65396;HTU21D;52004;45.136;39.010;2024-03-06T14:50:09;13.08;53.57
65396;HTU21D;52004;45.136;39.010;2024-03-06T14:52:35;13.03;53.58
65396;HTU21D;52004;45.136;39.010;2024-03-06T14:55:01;12.95;53.62
65396;HTU21D;52004;45.136;39.010;2024-03-06T14:57:28;12.88;53.68
65396;HTU21D;52004;45.136;39.010;2024-03-06T14:59:54;12.80;53.75
65396;HTU21D;52004;45.136;39.010;2024-03-06T15:02:20;12.74;53.81
65396;HTU21D;52004;45.136;39.010;2024-03-06T15:04:46;12.67;53.85
65396;HTU21D;52004;45.136;39.010;2024-03-06T15:07:12;12.63;53.89
65396;HTU21D;52004;45.136;39.010;2024-03-06T15:09:38;12.56;53.92
65396;HTU21D;52004;45.136;39.010;2024-03-06T15:12:05;12.51;53.97
65396;HTU21D;52004;45.136;39.010;2024-03-06T15:14:31;12.48;53.97
65396;HTU21D;52004;45.136;39.010;2024-03-06T15:16:57;12.45;53.96